createdAt,value
2023-01-25T00:00:41.503Z,79.40
2023-01-25T00:03:08.057Z,76.70
2023-01-25T00:05:34.579Z,76.60
2023-01-25T00:08:01.100Z,76.60
2023-01-25T00:10:27.698Z,78.00
2023-01-25T00:12:55.437Z,78.70
2023-01-25T00:15:21.937Z,79.00
2023-01-25T00:17:48.484Z,80.60
2023-01-25T00:20:15.208Z,80.60
2023-01-25T00:22:41.721Z,80.60
2023-01-25T00:25:08.709Z,80.60
2023-01-25T00:27:35.394Z,80.60
2023-01-25T00:30:02.250Z,80.60
2023-01-25T00:32:33.881Z,79.90
2023-01-25T00:35:00.499Z,80.60
2023-01-25T00:37:35.270Z,80.60
2023-01-25T00:40:01.830Z,80.60
2023-01-25T00:42:28.350Z,80.60
2023-01-25T00:44:55.049Z,80.60
2023-01-25T00:47:21.766Z,82.20
2023-01-25T00:49:48.404Z,80.70
2023-01-25T00:52:15.013Z,80.70
2023-01-25T00:54:41.647Z,80.60
2023-01-25T00:57:08.945Z,82.20
2023-01-25T00:59:35.820Z,81.20
2023-01-25T01:02:02.664Z,80.60
2023-01-25T01:04:29.789Z,80.60
2023-01-25T01:06:56.353Z,80.60
2023-01-25T01:09:23.356Z,80.60
2023-01-25T01:11:50.218Z,80.60
2023-01-25T01:14:16.824Z,82.70
2023-01-25T01:16:43.426Z,83.20
2023-01-25T01:19:10.552Z,84.00
2023-01-25T01:21:37.127Z,84.10
2023-01-25T01:24:04.000Z,84.20
2023-01-25T01:26:30.546Z,83.80
2023-01-25T01:28:57.991Z,84.00
2023-01-25T01:31:24.910Z,81.40
2023-01-25T01:33:52.538Z,80.60
2023-01-25T01:36:19.939Z,81.80
2023-01-25T01:38:46.492Z,82.40
2023-01-25T01:41:13.534Z,82.00
2023-01-25T01:43:40.541Z,82.90
2023-01-25T01:46:13.558Z,83.10
2023-01-25T01:48:45.577Z,83.20
2023-01-25T01:51:12.124Z,82.80
2023-01-25T01:53:40.125Z,81.10
2023-01-25T01:56:09.025Z,80.60
2023-01-25T01:58:36.450Z,78.20
2023-01-25T02:01:03.047Z,77.60
2023-01-25T02:03:29.883Z,77.70
2023-01-25T02:06:15.416Z,80.40
2023-01-25T02:08:43.283Z,80.40
2023-01-25T02:11:10.250Z,80.40
2023-01-25T02:13:37.273Z,80.40
2023-01-25T02:16:04.328Z,80.40
2023-01-25T02:18:31.187Z,80.40
2023-01-25T02:20:58.861Z,79.10
2023-01-25T02:23:29.610Z,78.10
2023-01-25T02:25:59.914Z,77.70
2023-01-25T02:28:27.954Z,78.10
2023-01-25T02:30:54.598Z,78.10
2023-01-25T02:33:23.163Z,78.20
2023-01-25T02:35:53.813Z,78.50
2023-01-25T02:38:21.348Z,78.50
2023-01-25T02:40:57.474Z,78.40
2023-01-25T02:43:27.625Z,78.90
2023-01-25T02:45:58.247Z,77.60
2023-01-25T02:48:24.763Z,77.20
2023-01-25T02:50:51.327Z,76.80
2023-01-25T02:53:17.872Z,77.20
2023-01-25T02:55:44.486Z,76.30
2023-01-25T02:58:10.987Z,76.50
2023-01-25T03:00:37.491Z,76.30
2023-01-25T03:03:04.112Z,76.80
2023-01-25T03:05:30.650Z,76.20
2023-01-25T03:07:57.152Z,76.30
2023-01-25T03:10:23.784Z,76.90
2023-01-25T03:12:50.285Z,77.30
2023-01-25T03:15:16.843Z,77.50
2023-01-25T03:17:43.419Z,78.70
2023-01-25T03:20:10.365Z,78.50
2023-01-25T03:22:36.848Z,78.90
2023-01-25T03:25:03.557Z,78.90
2023-01-25T03:27:30.803Z,78.50
2023-01-25T03:29:57.292Z,77.60
2023-01-25T03:32:23.929Z,77.30
2023-01-25T03:34:50.576Z,78.30
2023-01-25T03:37:17.283Z,78.20
2023-01-25T03:39:43.797Z,78.10
2023-01-25T03:42:10.563Z,77.60
2023-01-25T03:44:37.129Z,78.10
2023-01-25T03:47:03.751Z,77.00
2023-01-25T03:49:30.270Z,77.20
2023-01-25T03:51:57.997Z,77.90
2023-01-25T03:54:24.667Z,78.30
2023-01-25T03:56:51.164Z,78.40
2023-01-25T03:59:17.653Z,78.10
2023-01-25T04:01:44.346Z,78.60
2023-01-25T04:04:10.894Z,77.40
2023-01-25T04:06:37.511Z,76.30
2023-01-25T04:09:04.218Z,76.20
2023-01-25T04:11:30.745Z,77.60
2023-01-25T04:13:57.282Z,77.50
2023-01-25T04:16:24.076Z,78.50
2023-01-25T04:18:50.665Z,78.90
2023-01-25T04:21:17.185Z,79.90
2023-01-25T04:23:43.716Z,80.20
2023-01-25T04:26:12.375Z,80.30
2023-01-25T04:28:38.919Z,80.30
2023-01-25T04:31:06.254Z,79.30
2023-01-25T04:33:33.356Z,78.50
2023-01-25T04:35:59.984Z,77.70
2023-01-25T04:38:26.689Z,76.80
2023-01-25T04:40:53.187Z,76.20
2023-01-25T04:43:20.442Z,76.80
2023-01-25T04:45:47.304Z,75.90
2023-01-25T04:48:14.316Z,74.00
2023-01-25T04:50:41.839Z,74.00
2023-01-25T04:53:09.256Z,73.50
2023-01-25T04:55:35.798Z,73.80
2023-01-25T04:58:02.782Z,73.00
2023-01-25T05:00:29.808Z,72.00
2023-01-25T05:02:56.405Z,72.20
2023-01-25T05:05:22.976Z,72.20
2023-01-25T05:07:49.511Z,72.40
2023-01-25T05:10:16.115Z,72.60
2023-01-25T05:12:43.141Z,72.50
2023-01-25T05:15:10.163Z,73.60
2023-01-25T05:17:36.897Z,73.40
2023-01-25T05:20:03.992Z,73.70
2023-01-25T05:22:30.549Z,73.90
2023-01-25T05:24:59.005Z,74.00
2023-01-25T05:27:25.589Z,73.60
2023-01-25T05:29:52.118Z,73.00
2023-01-25T05:32:20.078Z,72.50
2023-01-25T05:34:47.153Z,73.40
2023-01-25T05:37:14.941Z,73.10
2023-01-25T05:39:41.605Z,72.10
2023-01-25T05:42:12.142Z,72.10
2023-01-25T05:44:39.220Z,72.10
2023-01-25T05:47:06.208Z,72.10
2023-01-25T05:49:32.847Z,72.00
2023-01-25T05:51:59.344Z,72.10
2023-01-25T05:54:25.926Z,72.00
2023-01-25T05:56:52.546Z,72.00
2023-01-25T05:59:19.200Z,72.10
2023-01-25T06:01:45.775Z,72.00
2023-01-25T06:04:14.184Z,72.00
2023-01-25T06:06:40.722Z,72.00
2023-01-25T06:09:07.269Z,71.90
2023-01-25T06:11:33.789Z,73.60
2023-01-25T06:14:00.311Z,73.30
2023-01-25T06:16:27.591Z,74.10
2023-01-25T06:18:54.101Z,75.10
2023-01-25T06:21:20.823Z,75.80
2023-01-25T06:23:47.435Z,75.90
2023-01-25T06:26:14.509Z,77.20
2023-01-25T06:28:41.230Z,78.00
2023-01-25T06:31:09.150Z,78.00
2023-01-25T06:33:35.731Z,78.30
2023-01-25T06:36:06.367Z,78.90
2023-01-25T06:38:33.171Z,80.00
2023-01-25T06:41:00.782Z,80.00
2023-01-25T06:43:27.642Z,80.00
2023-01-25T06:45:57.620Z,79.10
2023-01-25T06:48:24.153Z,78.40
2023-01-25T06:50:58.031Z,78.90
2023-01-25T06:53:25.712Z,77.80
2023-01-25T06:55:57.190Z,78.20
2023-01-25T06:58:23.677Z,78.00
2023-01-25T07:00:50.186Z,78.00
2023-01-25T07:03:16.735Z,78.50
2023-01-25T07:05:43.230Z,78.10
2023-01-25T07:08:09.756Z,76.50
2023-01-25T07:10:36.273Z,76.10
2023-01-25T07:13:02.787Z,75.30
2023-01-25T07:15:29.304Z,73.30
2023-01-25T07:17:59.429Z,71.90
2023-01-25T07:20:29.657Z,73.00
2023-01-25T07:22:56.238Z,73.70
2023-01-25T07:25:22.808Z,74.40
2023-01-25T07:27:49.345Z,74.60
2023-01-25T07:30:16.502Z,74.50
2023-01-25T07:32:43.012Z,74.70
2023-01-25T07:35:10.146Z,74.90
2023-01-25T07:37:36.931Z,75.20
2023-01-25T07:40:03.551Z,75.60
2023-01-25T07:42:30.116Z,74.60
2023-01-25T07:44:56.608Z,75.90
2023-01-25T07:47:23.172Z,76.00
2023-01-25T07:49:49.739Z,75.70
2023-01-25T07:52:16.260Z,74.70
2023-01-25T07:54:42.747Z,76.80
2023-01-25T07:57:09.445Z,76.70
2023-01-25T07:59:35.972Z,77.10
2023-01-25T08:02:02.506Z,76.00
2023-01-25T08:04:29.087Z,76.00
2023-01-25T08:06:56.480Z,76.10
2023-01-25T08:09:23.017Z,75.90
2023-01-25T08:11:49.569Z,75.10
2023-01-25T08:14:16.225Z,76.10
2023-01-25T08:16:42.716Z,76.10
2023-01-25T08:19:10.151Z,75.60
2023-01-25T08:21:36.745Z,73.40
2023-01-25T08:24:04.968Z,72.00
2023-01-25T08:26:31.855Z,72.00
2023-01-25T08:28:58.643Z,71.90
2023-01-25T08:31:26.890Z,73.00
2023-01-25T08:33:53.724Z,73.20
2023-01-25T08:36:21.104Z,71.90
2023-01-25T08:38:48.012Z,72.00
2023-01-25T08:41:16.219Z,72.00
2023-01-25T08:43:43.493Z,72.00
2023-01-25T08:46:10.312Z,72.00
2023-01-25T08:48:36.968Z,72.10
2023-01-25T08:51:03.643Z,72.10
2023-01-25T08:53:30.919Z,71.60
2023-01-25T08:56:02.336Z,72.00
2023-01-25T08:58:29.745Z,71.90
2023-01-25T09:01:00.922Z,72.00
2023-01-25T09:03:27.898Z,71.40
2023-01-25T09:05:54.414Z,71.50
2023-01-25T09:08:20.904Z,69.90
2023-01-25T09:10:47.419Z,69.60
2023-01-25T09:13:14.356Z,69.70
2023-01-25T09:15:40.906Z,70.30
2023-01-25T09:18:09.095Z,70.70
2023-01-25T09:20:37.787Z,71.00
2023-01-25T09:23:04.314Z,70.80
2023-01-25T09:25:31.035Z,69.30
2023-01-25T09:27:57.575Z,68.40
2023-01-25T09:30:33.886Z,68.80
2023-01-25T09:33:04.860Z,68.20
2023-01-25T09:35:31.426Z,69.10
2023-01-25T09:37:58.422Z,70.00
2023-01-25T09:40:27.157Z,69.90
2023-01-25T09:42:58.729Z,67.40
2023-01-25T09:45:35.955Z,67.10
2023-01-25T09:48:02.465Z,67.40
2023-01-25T09:50:33.706Z,66.60
2023-01-25T09:53:05.979Z,66.60
2023-01-25T09:55:33.110Z,66.60
2023-01-25T09:58:02.228Z,66.40
2023-01-25T10:00:33.196Z,67.00
2023-01-25T10:03:02.929Z,65.60
2023-01-25T10:05:32.861Z,65.00
2023-01-25T10:08:08.124Z,63.80
2023-01-25T10:10:37.888Z,65.00
2023-01-25T10:13:04.456Z,64.50
2023-01-25T10:15:33.181Z,63.90
2023-01-25T10:18:02.896Z,63.20
2023-01-25T10:20:38.378Z,62.10
2023-01-25T10:23:07.927Z,64.00
2023-01-25T10:25:45.895Z,63.90
2023-01-25T10:28:18.543Z,64.00
2023-01-25T10:30:55.378Z,61.50
2023-01-25T10:33:22.015Z,64.00
2023-01-25T10:35:49.689Z,63.70
2023-01-25T10:38:28.187Z,59.60
2023-01-25T10:40:58.967Z,60.20
2023-01-25T10:43:25.669Z,61.20
2023-01-25T10:45:52.196Z,60.80
2023-01-25T10:48:24.023Z,60.80
2023-01-25T10:50:51.769Z,61.30
2023-01-25T10:53:21.605Z,62.20
2023-01-25T10:56:06.984Z,64.00
2023-01-25T10:58:35.638Z,63.10
2023-01-25T11:01:02.740Z,61.90
2023-01-25T11:03:39.503Z,61.00
2023-01-25T11:06:06.527Z,60.00
2023-01-25T11:08:34.703Z,60.00
2023-01-25T11:11:14.046Z,61.10
2023-01-25T11:13:41.070Z,62.70
2023-01-25T11:16:23.014Z,61.20
2023-01-25T11:18:53.902Z,59.60
2023-01-25T11:21:25.175Z,57.70
2023-01-25T11:23:59.114Z,59.60
2023-01-25T11:26:26.021Z,60.30
2023-01-25T11:29:05.464Z,61.00
2023-01-25T11:31:32.124Z,60.80
2023-01-25T11:33:58.911Z,60.60
2023-01-25T11:36:32.060Z,60.10
2023-01-25T11:39:07.692Z,60.80
2023-01-25T11:41:42.772Z,61.00
2023-01-25T11:44:21.474Z,59.60
2023-01-25T11:46:56.138Z,59.50
2023-01-25T11:49:41.345Z,59.60
2023-01-25T11:52:26.726Z,57.00
2023-01-25T11:55:05.308Z,57.40
2023-01-25T11:57:43.408Z,54.70
2023-01-25T12:00:24.920Z,54.80
2023-01-25T12:02:54.239Z,54.60
2023-01-25T12:05:26.946Z,55.30
2023-01-25T12:08:15.974Z,56.60
2023-01-25T12:10:58.818Z,54.70
2023-01-25T12:13:34.520Z,54.80
2023-01-25T12:16:27.507Z,55.80
2023-01-25T12:18:57.033Z,58.50
2023-01-25T12:21:42.568Z,57.60
2023-01-25T12:24:27.625Z,56.40
2023-01-25T12:27:05.874Z,54.80
2023-01-25T12:29:36.528Z,54.80
2023-01-25T12:32:12.701Z,54.80
2023-01-25T12:34:40.520Z,54.70
2023-01-25T12:37:14.755Z,54.70
2023-01-25T12:39:44.412Z,54.70
2023-01-25T12:42:20.128Z,55.30
2023-01-25T12:44:52.225Z,57.20
2023-01-25T12:47:33.548Z,54.80
2023-01-25T12:50:09.475Z,54.00
2023-01-25T12:52:40.230Z,54.70
2023-01-25T12:55:12.177Z,55.40
2023-01-25T12:57:44.454Z,54.70
2023-01-25T13:00:23.503Z,54.70
2023-01-25T13:02:50.119Z,54.70
2023-01-25T13:05:33.857Z,54.70
2023-01-25T13:08:00.437Z,54.60
2023-01-25T13:10:31.069Z,56.50
2023-01-25T13:13:05.061Z,57.60
2023-01-25T13:15:42.313Z,56.20
2023-01-25T13:18:24.175Z,55.50
2023-01-25T13:20:52.984Z,55.60
2023-01-25T13:23:47.519Z,54.60
2023-01-25T13:26:28.300Z,56.30
2023-01-25T13:28:59.600Z,56.30
2023-01-25T13:31:50.972Z,55.40
2023-01-25T13:34:40.210Z,54.70
2023-01-25T13:37:15.915Z,54.70
2023-01-25T13:39:44.039Z,54.80
2023-01-25T13:42:10.487Z,53.90
2023-01-25T13:44:57.271Z,54.70
2023-01-25T13:47:25.150Z,55.80
2023-01-25T13:50:00.306Z,56.70
2023-01-25T13:52:27.526Z,55.90
2023-01-25T13:54:55.360Z,56.60
2023-01-25T13:57:23.607Z,56.30
2023-01-25T14:00:11.287Z,54.70
2023-01-25T14:02:38.871Z,54.70
2023-01-25T14:05:07.966Z,54.70
2023-01-25T14:07:36.806Z,54.70
2023-01-25T14:10:08.269Z,55.40
2023-01-25T14:12:39.431Z,55.30
2023-01-25T14:15:24.636Z,54.60
2023-01-25T14:18:04.481Z,54.60
2023-01-25T14:20:31.048Z,54.50
2023-01-25T14:22:57.564Z,57.50
2023-01-25T14:25:25.745Z,59.40
2023-01-25T14:27:56.541Z,60.20
2023-01-25T14:30:27.276Z,60.70
2023-01-25T14:32:54.980Z,60.80
2023-01-25T14:35:42.346Z,62.40
2023-01-25T14:38:24.992Z,63.80
2023-01-25T14:40:53.257Z,63.10
2023-01-25T14:43:19.997Z,63.80
2023-01-25T14:45:46.596Z,62.00
2023-01-25T14:48:32.013Z,61.80
2023-01-25T14:51:25.091Z,63.70
2023-01-25T14:53:57.260Z,63.70
2023-01-25T14:56:27.853Z,63.70
2023-01-25T14:58:59.533Z,63.70
2023-01-25T15:01:31.609Z,63.70
2023-01-25T15:03:58.531Z,63.70
2023-01-25T15:06:25.118Z,63.70
2023-01-25T15:08:51.747Z,63.60
2023-01-25T15:11:58.239Z,64.10
2023-01-25T15:14:24.738Z,63.70
2023-01-25T15:16:51.436Z,63.70
2023-01-25T15:19:30.890Z,65.40
2023-01-25T15:21:58.892Z,65.80
2023-01-25T15:24:25.993Z,65.90
2023-01-25T15:26:53.611Z,63.70
2023-01-25T15:29:21.545Z,63.60
2023-01-25T15:31:49.125Z,63.60
2023-01-25T15:34:17.317Z,65.00
2023-01-25T15:36:43.886Z,65.20
2023-01-25T15:39:11.321Z,65.50
2023-01-25T15:41:37.821Z,64.60
2023-01-25T15:44:04.400Z,64.70
2023-01-25T15:46:33.310Z,65.80
2023-01-25T15:49:00.528Z,66.00
2023-01-25T15:51:28.408Z,66.00
2023-01-25T15:53:55.142Z,66.40
2023-01-25T15:56:23.771Z,65.00
2023-01-25T15:58:51.872Z,65.50
2023-01-25T16:01:19.051Z,66.40
2023-01-25T16:03:45.587Z,67.80
2023-01-25T16:06:21.579Z,68.00
2023-01-25T16:08:48.149Z,69.00
2023-01-25T16:11:14.728Z,68.50
2023-01-25T16:13:41.443Z,69.50
2023-01-25T16:16:13.031Z,70.20
2023-01-25T16:18:39.594Z,70.60
2023-01-25T16:21:06.101Z,70.20
2023-01-25T16:23:32.607Z,70.40
2023-01-25T16:25:59.387Z,70.40
2023-01-25T16:28:26.238Z,70.60
2023-01-25T16:30:52.860Z,72.00
2023-01-25T16:33:23.985Z,72.00
2023-01-25T16:36:02.642Z,72.00
2023-01-25T16:38:29.156Z,72.00
2023-01-25T16:40:56.301Z,72.00
2023-01-25T16:43:25.172Z,72.00
2023-01-25T16:45:57.092Z,72.00
2023-01-25T16:48:23.823Z,73.00
2023-01-25T16:50:50.839Z,72.00
2023-01-25T16:53:17.731Z,71.90
2023-01-25T16:55:44.236Z,72.40
2023-01-25T16:58:10.828Z,72.80
2023-01-25T17:00:37.322Z,73.60
2023-01-25T17:03:04.916Z,73.70
2023-01-25T17:05:33.212Z,72.30
2023-01-25T17:07:59.881Z,72.80
2023-01-25T17:10:26.445Z,71.90
2023-01-25T17:12:52.979Z,72.80
2023-01-25T17:15:20.426Z,72.90
2023-01-25T17:17:46.996Z,72.50
2023-01-25T17:20:13.542Z,73.70
2023-01-25T17:22:41.843Z,74.10
2023-01-25T17:25:08.372Z,74.50
2023-01-25T17:27:34.910Z,75.30
2023-01-25T17:30:01.464Z,75.00
2023-01-25T17:32:28.665Z,75.10
2023-01-25T17:34:58.907Z,74.90
2023-01-25T17:37:25.876Z,73.60
2023-01-25T17:39:52.488Z,73.50
2023-01-25T17:42:19.187Z,72.00
2023-01-25T17:44:45.689Z,72.00
2023-01-25T17:47:12.252Z,72.80
2023-01-25T17:49:38.748Z,72.70
2023-01-25T17:52:05.379Z,73.70
2023-01-25T17:54:31.928Z,74.30
2023-01-25T17:56:58.513Z,74.60
2023-01-25T17:59:25.019Z,74.60
2023-01-25T18:01:51.629Z,74.50
2023-01-25T18:04:19.047Z,75.60
2023-01-25T18:06:45.613Z,75.40
2023-01-25T18:09:12.204Z,75.90
2023-01-25T18:11:40.271Z,76.70
2023-01-25T18:14:08.111Z,77.50
2023-01-25T18:16:35.830Z,78.20
2023-01-25T18:19:03.360Z,78.20
2023-01-25T18:21:31.932Z,79.00
2023-01-25T18:24:00.674Z,78.50
2023-01-25T18:26:28.850Z,77.90
2023-01-25T18:28:59.810Z,76.20
2023-01-25T18:31:26.530Z,76.10
2023-01-25T18:33:53.222Z,76.20
2023-01-25T18:36:20.395Z,76.30
2023-01-25T18:38:46.952Z,75.50
2023-01-25T18:41:13.502Z,76.20
2023-01-25T18:43:40.012Z,75.60
2023-01-25T18:46:06.690Z,74.50
2023-01-25T18:48:33.504Z,73.10
2023-01-25T18:51:04.066Z,72.60
2023-01-25T18:53:31.537Z,72.50
2023-01-25T18:56:03.936Z,72.20
2023-01-25T18:58:31.850Z,96.60
2023-01-25T19:01:05.949Z,99.90
2023-01-25T19:03:32.728Z,99.90
2023-01-25T19:05:59.287Z,99.90
2023-01-25T19:08:26.698Z,93.30
2023-01-25T19:11:00.465Z,71.20
2023-01-25T19:13:27.881Z,63.70
2023-01-25T19:16:01.270Z,26.80
2023-01-25T19:18:29.085Z,53.80
2023-01-25T19:20:55.616Z,55.30
2023-01-25T19:23:22.260Z,26.30
2023-01-25T19:25:55.399Z,26.00
2023-01-25T19:28:22.940Z,31.00
2023-01-25T19:30:49.959Z,37.90
2023-01-25T19:33:16.834Z,44.90
2023-01-25T19:35:43.467Z,50.20
2023-01-25T19:38:10.233Z,54.20
2023-01-25T19:40:36.770Z,54.90
2023-01-25T19:43:03.326Z,56.40
2023-01-25T19:45:29.894Z,59.70
2023-01-25T19:47:56.408Z,62.50
2023-01-25T19:50:23.038Z,63.80
2023-01-25T19:52:49.552Z,64.30
2023-01-25T19:55:16.095Z,66.80
2023-01-25T19:57:42.585Z,66.20
2023-01-25T20:00:09.616Z,67.40
2023-01-25T20:02:36.319Z,68.10
2023-01-25T20:05:03.076Z,69.20
2023-01-25T20:07:30.823Z,72.00
2023-01-25T20:09:57.408Z,72.00
2023-01-25T20:12:23.941Z,72.90
2023-01-25T20:14:50.462Z,73.30
2023-01-25T20:17:17.045Z,74.60
2023-01-25T20:19:44.257Z,74.60
2023-01-25T20:22:10.917Z,74.30
2023-01-25T20:24:37.436Z,74.50
2023-01-25T20:27:04.563Z,74.80
2023-01-25T20:29:31.446Z,75.60
2023-01-25T20:31:58.149Z,76.10
2023-01-25T20:34:24.803Z,75.50
2023-01-25T20:36:51.339Z,74.50
2023-01-25T20:39:19.785Z,73.70
2023-01-25T20:41:48.036Z,74.40
2023-01-25T20:44:15.469Z,76.10
2023-01-25T20:46:42.246Z,78.10
2023-01-25T20:49:10.190Z,79.20
2023-01-25T20:51:37.087Z,78.10
2023-01-25T20:54:03.635Z,78.90
2023-01-25T20:56:31.611Z,79.60
2023-01-25T20:58:58.231Z,79.80
2023-01-25T21:01:28.198Z,80.00
2023-01-25T21:03:56.679Z,80.00
2023-01-25T21:06:24.019Z,80.00
2023-01-25T21:08:50.683Z,80.00
2023-01-25T21:11:19.827Z,79.90
2023-01-25T21:13:47.255Z,80.00
2023-01-25T21:16:16.354Z,80.00
2023-01-25T21:18:44.374Z,80.00
2023-01-25T21:21:12.382Z,80.50
2023-01-25T21:23:39.999Z,80.40
2023-01-25T21:26:07.232Z,80.90
2023-01-25T21:28:34.698Z,82.00
2023-01-25T21:31:11.907Z,80.00
2023-01-25T21:33:38.715Z,80.00
2023-01-25T21:36:08.487Z,80.00
2023-01-25T21:38:35.711Z,80.00
2023-01-25T21:41:02.846Z,80.00
2023-01-25T21:43:29.428Z,79.90
2023-01-25T21:46:25.213Z,79.90
2023-01-25T21:49:11.482Z,80.50
2023-01-25T21:51:39.620Z,81.80
2023-01-25T21:54:06.136Z,82.70
2023-01-25T21:56:32.843Z,83.20
2023-01-25T21:58:59.447Z,83.90
2023-01-25T22:01:26.028Z,83.70
2023-01-25T22:03:52.637Z,83.90
2023-01-25T22:06:19.671Z,83.20
2023-01-25T22:08:46.279Z,83.50
2023-01-25T22:11:12.833Z,82.70
2023-01-25T22:13:40.130Z,83.80
2023-01-25T22:16:07.754Z,84.60
2023-01-25T22:18:35.763Z,83.80
2023-01-25T22:21:03.628Z,83.80
2023-01-25T22:23:30.579Z,83.90
2023-01-25T22:26:01.351Z,83.90
2023-01-25T22:28:31.785Z,83.80
2023-01-25T22:30:58.352Z,85.80
2023-01-25T22:33:25.001Z,84.40
2023-01-25T22:35:51.556Z,83.80
2023-01-25T22:38:18.070Z,83.80
2023-01-25T22:40:44.571Z,85.30
2023-01-25T22:43:11.127Z,85.40
2023-01-25T22:45:37.716Z,85.70
2023-01-25T22:48:04.360Z,86.20
2023-01-25T22:50:30.934Z,87.60
2023-01-25T22:52:57.462Z,87.60
2023-01-25T22:55:23.942Z,87.70
2023-01-25T22:57:50.464Z,87.60
2023-01-25T23:00:17.249Z,87.70
2023-01-25T23:02:43.810Z,87.70
2023-01-25T23:05:10.328Z,87.60
2023-01-25T23:07:36.825Z,87.60
2023-01-25T23:10:03.435Z,87.70
2023-01-25T23:12:29.995Z,87.70
2023-01-25T23:15:02.635Z,87.60
2023-01-25T23:17:48.063Z,87.70
2023-01-25T23:20:14.572Z,87.70
2023-01-25T23:22:41.601Z,87.70
2023-01-25T23:25:08.890Z,87.70
2023-01-25T23:27:35.416Z,87.70
2023-01-25T23:30:02.353Z,88.50
2023-01-25T23:32:28.885Z,87.70
2023-01-25T23:34:55.460Z,87.60
2023-01-25T23:37:22.445Z,87.70
2023-01-25T23:39:49.936Z,87.70
2023-01-25T23:42:16.469Z,87.70
2023-01-25T23:44:43.021Z,87.70
2023-01-25T23:47:09.600Z,87.70
2023-01-25T23:49:36.181Z,87.90
2023-01-25T23:52:02.838Z,87.70
2023-01-25T23:54:29.538Z,87.70
2023-01-25T23:56:56.034Z,87.70
2023-01-25T23:59:22.560Z,87.70
